Time;durP1;ratioP1;P1;durP2;ratioP2;P2;SDS_P1;SDS_P2;PMS_P1;PMS_P2;Temp;Humidity;BMP_temperature;BMP_pressure;BME280_temperature;BME280_humidity;BME280_pressure;Samples;Min_cycle;Max_cycle;Signal;HPM_P1;HPM_P2
2023/05/02 00:00:18;;;;;;;0.00;0.00;;;;;;;;;;1723917;28;20213;-75
2023/05/02 00:01:11;;;;;;;0.00;0.00;;;;;;;;;;1729446;28;20243;-74
2023/05/02 00:02:03;;;;;;;0.00;0.00;;;;;;;;;;1724941;28;20211;-74
2023/05/02 00:02:54;;;;;;;0.00;0.00;;;;;;;;;;1725133;28;20975;-75
2023/05/02 00:03:46;;;;;;;0.00;0.00;;;;;;;;;;1725770;28;20197;-74
2023/05/02 00:04:37;;;;;;;0.00;0.00;;;;;;;;;;1729084;28;20273;-75
2023/05/02 00:05:29;;;;;;;0.00;0.00;;;;;;;;;;1728861;28;20246;-75
2023/05/02 00:06:20;;;;;;;0.00;0.00;;;;;;;;;;1726527;28;20627;-75
2023/05/02 00:07:12;;;;;;;0.00;0.00;;;;;;;;;;1726375;28;20209;-75
2023/05/02 00:08:03;;;;;;;0.00;0.00;;;;;;;;;;1728104;28;20630;-75
2023/05/02 00:08:55;;;;;;;0.00;0.00;;;;;;;;;;1727514;28;20203;-75
2023/05/02 00:09:46;;;;;;;0.00;0.00;;;;;;;;;;1725586;28;20214;-75
2023/05/02 00:10:38;;;;;;;0.00;0.00;;;;;;;;;;1724140;28;20321;-75
2023/05/02 00:11:29;;;;;;;0.00;0.00;;;;;;;;;;1738721;28;20616;-75
2023/05/02 00:12:22;;;;;;;0.00;0.00;;;;;;;;;;1738720;28;20232;-75
2023/05/02 00:13:13;;;;;;;0.00;0.00;;;;;;;;;;1736886;28;20680;-75
2023/05/02 00:14:05;;;;;;;0.00;0.00;;;;;;;;;;1738329;28;20204;-75
2023/05/02 00:14:56;;;;;;;0.00;0.00;;;;;;;;;;1738534;28;20227;-74
2023/05/02 00:15:48;;;;;;;0.00;0.00;;;;;;;;;;1736259;28;20564;-74
2023/05/02 00:16:40;;;;;;;0.00;0.00;;;;;;;;;;1738999;28;20604;-74
2023/05/02 00:17:32;;;;;;;0.00;0.00;;;;;;;;;;1736955;28;20230;-74
2023/05/02 00:18:23;;;;;;;0.00;0.00;;;;;;;;;;1738274;28;20243;-74
2023/05/02 00:19:15;;;;;;;0.00;0.00;;;;;;;;;;1738661;28;20316;-75
2023/05/02 00:20:08;;;;;;;0.00;0.00;;;;;;;;;;1733588;28;20214;-75
2023/05/02 00:21:00;;;;;;;0.00;0.00;;;;;;;;;;1734942;28;20350;-75
2023/05/02 00:21:51;;;;;;;0.00;0.00;;;;;;;;;;1742347;28;20199;-75
2023/05/02 00:22:43;;;;;;;0.00;0.00;;;;;;;;;;1738439;28;20234;-75
2023/05/02 00:23:34;;;;;;;0.00;0.00;;;;;;;;;;1738695;28;20218;-74
2023/05/02 00:24:26;;;;;;;0.00;0.00;;;;;;;;;;1739357;28;20208;-75
2023/05/02 00:25:17;;;;;;;0.00;0.00;;;;;;;;;;1734652;28;20238;-75
2023/05/02 00:26:09;;;;;;;0.00;0.00;;;;;;;;;;1739896;28;20234;-75
2023/05/02 00:27:01;;;;;;;0.00;0.00;;;;;;;;;;1740644;28;20204;-75
2023/05/02 00:27:53;;;;;;;0.00;0.00;;;;;;;;;;1738383;28;20403;-75
2023/05/02 00:28:44;;;;;;;0.00;0.00;;;;;;;;;;1738507;28;20228;-76
2023/05/02 00:29:36;;;;;;;0.00;0.00;;;;;;;;;;1738478;28;20209;-76
2023/05/02 00:30:27;;;;;;;0.00;0.00;;;;;;;;;;1737255;28;20530;-76
2023/05/02 00:31:19;;;;;;;0.00;0.00;;;;;;;;;;1738827;28;20230;-76
2023/05/02 00:32:11;;;;;;;0.00;0.00;;;;;;;;;;1738429;28;20269;-76
2023/05/02 00:33:05;;;;;;;0.00;0.00;;;;;;;;;;1737554;28;20783;-76
2023/05/02 00:33:56;;;;;;;0.00;0.00;;;;;;;;;;1738944;28;20274;-76
2023/05/02 00:34:48;;;;;;;0.00;0.00;;;;;;;;;;1736412;28;20210;-75
2023/05/02 00:35:39;;;;;;;0.00;0.00;;;;;;;;;;1729552;28;20247;-75
2023/05/02 00:36:32;;;;;;;0.00;0.00;;;;;;;;;;1736202;28;20634;-75
2023/05/02 00:37:26;;;;;;;0.00;0.00;;;;;;;;;;1738306;28;20210;-75
2023/05/02 00:38:18;;;;;;;0.00;0.00;;;;;;;;;;1737309;28;20214;-75
2023/05/02 00:39:09;;;;;;;0.00;0.00;;;;;;;;;;1738147;28;20573;-75
2023/05/02 00:40:06;;;;;;;0.00;0.00;;;;;;;;;;1738535;28;20267;-75
2023/05/02 00:40:57;;;;;;;0.00;0.00;;;;;;;;;;1733649;28;20234;-74
2023/05/02 00:41:49;;;;;;;0.00;0.00;;;;;;;;;;1742033;28;20255;-74
2023/05/02 00:42:40;;;;;;;0.00;0.00;;;;;;;;;;1736062;28;20218;-74
2023/05/02 00:43:33;;;;;;;0.00;0.00;;;;;;;;;;1738879;28;20329;-74
2023/05/02 00:44:24;;;;;;;0.00;0.00;;;;;;;;;;1736579;28;20213;-74
2023/05/02 00:45:17;;;;;;;0.10;0.10;;;;;;;;;;1729842;28;20218;-74
2023/05/02 00:46:10;;;;;;;0.00;0.00;;;;;;;;;;1737612;28;20208;-74
2023/05/02 00:47:03;;;;;;;0.00;0.00;;;;;;;;;;1738585;28;20207;-74
2023/05/02 00:47:55;;;;;;;0.00;0.00;;;;;;;;;;1738514;28;20583;-74
2023/05/02 00:48:47;;;;;;;0.00;0.00;;;;;;;;;;1736442;28;20215;-74
2023/05/02 00:49:38;;;;;;;0.00;0.00;;;;;;;;;;1738767;28;20743;-74
2023/05/02 00:50:31;;;;;;;0.10;0.10;;;;;;;;;;1730044;28;21160;-75
2023/05/02 00:51:22;;;;;;;0.00;0.00;;;;;;;;;;1738762;28;20259;-75
2023/05/02 00:52:14;;;;;;;0.00;0.00;;;;;;;;;;1738028;28;20268;-75
2023/05/02 00:53:06;;;;;;;0.00;0.00;;;;;;;;;;1738416;28;20200;-75
2023/05/02 00:53:58;;;;;;;0.00;0.00;;;;;;;;;;1738024;28;20195;-75
2023/05/02 00:54:49;;;;;;;0.00;0.00;;;;;;;;;;1737832;28;20532;-75
2023/05/02 00:55:41;;;;;;;0.00;0.00;;;;;;;;;;1735533;28;20660;-75
2023/05/02 00:56:32;;;;;;;0.00;0.00;;;;;;;;;;1738456;28;20207;-75
2023/05/02 00:57:24;;;;;;;0.00;0.00;;;;;;;;;;1739669;28;20198;-75
2023/05/02 00:58:16;;;;;;;0.00;0.00;;;;;;;;;;1737122;28;20210;-75
2023/05/02 00:59:09;;;;;;;0.00;0.00;;;;;;;;;;1737930;28;20245;-75
2023/05/02 01:00:03;;;;;;;0.00;0.00;;;;;;;;;;1738682;28;20510;-75
2023/05/02 01:01:00;;;;;;;0.00;0.00;;;;;;;;;;1736052;28;20226;-74
2023/05/02 01:01:56;;;;;;;0.00;0.00;;;;;;;;;;1731740;28;20256;-74
2023/05/02 01:02:51;;;;;;;0.00;0.00;;;;;;;;;;1737752;28;20205;-74
2023/05/02 01:03:51;;;;;;;0.00;0.00;;;;;;;;;;1738193;28;20238;-75
2023/05/02 01:04:46;;;;;;;0.00;0.00;;;;;;;;;;1737172;28;20298;-75
2023/05/02 01:05:44;;;;;;;0.00;0.00;;;;;;;;;;1736579;28;20242;-75
2023/05/02 01:06:40;;;;;;;0.00;0.00;;;;;;;;;;1738528;28;20198;-75
2023/05/02 01:07:40;;;;;;;0.03;0.03;;;;;;;;;;1737959;28;20624;-74
2023/05/02 01:08:35;;;;;;;0.00;0.00;;;;;;;;;;1738327;28;20207;-75
2023/05/02 01:09:34;;;;;;;0.00;0.00;;;;;;;;;;1737873;28;20203;-75
2023/05/02 01:10:30;;;;;;;0.00;0.00;;;;;;;;;;1737342;28;20195;-75
2023/05/02 01:11:24;;;;;;;0.00;0.00;;;;;;;;;;1730625;28;20280;-75
2023/05/02 01:12:19;;;;;;;0.00;0.00;;;;;;;;;;1731380;28;20625;-74
2023/05/02 01:13:13;;;;;;;0.00;0.00;;;;;;;;;;1731384;28;20550;-74
2023/05/02 01:14:06;;;;;;;0.00;0.00;;;;;;;;;;1731137;28;20632;-75
2023/05/02 01:14:58;;;;;;;0.00;0.00;;;;;;;;;;1730316;28;20602;-75
2023/05/02 01:15:51;;;;;;;0.00;0.00;;;;;;;;;;1726233;28;20230;-76
2023/05/02 01:16:43;;;;;;;0.00;0.00;;;;;;;;;;1731618;28;20209;-75
2023/05/02 01:17:37;;;;;;;0.00;0.00;;;;;;;;;;1730960;28;20721;-75
2023/05/02 01:18:30;;;;;;;0.00;0.00;;;;;;;;;;1731549;28;20878;-75
2023/05/02 01:19:28;;;;;;;0.00;0.00;;;;;;;;;;1731162;28;20676;-75
2023/05/02 01:20:20;;;;;;;0.00;0.00;;;;;;;;;;1721157;28;20858;-75
2023/05/02 01:21:12;;;;;;;0.00;0.00;;;;;;;;;;1731107;28;20304;-75
2023/05/02 01:22:05;;;;;;;0.00;0.00;;;;;;;;;;1726713;28;20875;-75
2023/05/02 01:23:01;;;;;;;0.00;0.00;;;;;;;;;;1729838;28;20321;-75
2023/05/02 01:23:56;;;;;;;0.00;0.00;;;;;;;;;;1730772;28;20203;-75
2023/05/02 01:24:52;;;;;;;0.00;0.00;;;;;;;;;;1731562;28;20196;-75
2023/05/02 01:25:52;;;;;;;0.00;0.00;;;;;;;;;;1729403;28;20326;-75
2023/05/02 01:26:52;;;;;;;0.00;0.00;;;;;;;;;;1731738;28;20207;-75
2023/05/02 01:27:47;;;;;;;0.00;0.00;;;;;;;;;;1730642;28;20238;-75
2023/05/02 01:28:48;;;;;;;0.00;0.00;;;;;;;;;;1732442;28;20189;-75
2023/05/02 01:29:40;;;;;;;0.00;0.00;;;;;;;;;;1732370;28;20208;-75
2023/05/02 01:30:33;;;;;;;0.00;0.00;;;;;;;;;;1730886;28;20257;-75
2023/05/02 01:31:25;;;;;;;0.00;0.00;;;;;;;;;;1733156;28;20606;-75
2023/05/02 01:32:22;;;;;;;0.00;0.00;;;;;;;;;;1727988;28;20204;-75
2023/05/02 01:33:14;;;;;;;0.00;0.00;;;;;;;;;;1732321;28;20266;-75
2023/05/02 01:34:08;;;;;;;0.00;0.00;;;;;;;;;;1732124;28;20203;-75
2023/05/02 01:35:01;;;;;;;0.00;0.00;;;;;;;;;;1732776;28;20538;-75
2023/05/02 01:35:54;;;;;;;0.00;0.00;;;;;;;;;;1726667;28;20235;-76
2023/05/02 01:36:46;;;;;;;0.00;0.00;;;;;;;;;;1732681;28;20211;-76
2023/05/02 01:37:38;;;;;;;0.00;0.00;;;;;;;;;;1732305;28;20207;-75
2023/05/02 01:38:30;;;;;;;0.00;0.00;;;;;;;;;;1732385;28;20206;-75
2023/05/02 01:39:24;;;;;;;0.00;0.00;;;;;;;;;;1732626;28;20201;-75
2023/05/02 01:40:18;;;;;;;0.00;0.00;;;;;;;;;;1729927;28;20211;-76
2023/05/02 01:41:10;;;;;;;0.00;0.00;;;;;;;;;;1732126;28;20207;-76
2023/05/02 01:42:02;;;;;;;0.00;0.00;;;;;;;;;;1728378;28;20208;-75
2023/05/02 01:42:55;;;;;;;0.00;0.00;;;;;;;;;;1729440;28;20205;-75
2023/05/02 01:43:48;;;;;;;0.00;0.00;;;;;;;;;;1732508;28;20211;-75
2023/05/02 01:44:40;;;;;;;0.00;0.00;;;;;;;;;;1730392;28;20593;-75
2023/05/02 01:45:32;;;;;;;0.00;0.00;;;;;;;;;;1727143;28;20246;-75
2023/05/02 01:46:25;;;;;;;0.00;0.00;;;;;;;;;;1730109;28;20217;-75
2023/05/02 01:47:18;;;;;;;0.00;0.00;;;;;;;;;;1727791;28;20511;-75
2023/05/02 01:48:11;;;;;;;0.00;0.00;;;;;;;;;;1731397;28;20202;-75
2023/05/02 01:49:05;;;;;;;0.00;0.00;;;;;;;;;;1732118;28;20693;-74
2023/05/02 01:49:58;;;;;;;0.00;0.00;;;;;;;;;;1732638;28;20231;-74
2023/05/02 01:50:50;;;;;;;0.00;0.00;;;;;;;;;;1727806;28;20234;-74
2023/05/02 01:51:44;;;;;;;0.00;0.00;;;;;;;;;;1730590;28;20235;-74
2023/05/02 01:52:37;;;;;;;0.00;0.00;;;;;;;;;;1728746;28;20207;-74
2023/05/02 01:53:30;;;;;;;0.00;0.00;;;;;;;;;;1732371;28;20203;-74
2023/05/02 01:54:24;;;;;;;0.00;0.00;;;;;;;;;;1732335;28;20210;-74
2023/05/02 01:55:18;;;;;;;0.00;0.00;;;;;;;;;;1727878;28;21031;-74
2023/05/02 01:56:09;;;;;;;0.00;0.00;;;;;;;;;;1732063;28;20207;-74
2023/05/02 01:57:02;;;;;;;0.00;0.00;;;;;;;;;;1732376;28;20207;-74
2023/05/02 01:57:54;;;;;;;0.00;0.00;;;;;;;;;;1732413;28;20620;-74
2023/05/02 01:58:47;;;;;;;0.00;0.00;;;;;;;;;;1732585;28;20716;-74
2023/05/02 01:59:40;;;;;;;0.00;0.00;;;;;;;;;;1732049;28;20674;-74
2023/05/02 02:00:33;;;;;;;0.08;0.08;;;;;;;;;;1729615;28;20242;-74
2023/05/02 02:01:26;;;;;;;0.00;0.00;;;;;;;;;;1732530;28;20246;-74
2023/05/02 02:02:18;;;;;;;0.00;0.00;;;;;;;;;;1731326;28;20204;-74
2023/05/02 02:03:10;;;;;;;0.00;0.00;;;;;;;;;;1732389;28;20697;-74
2023/05/02 02:04:02;;;;;;;0.10;0.10;;;;;;;;;;1731987;28;20205;-73
2023/05/02 02:04:54;;;;;;;0.00;0.00;;;;;;;;;;1732635;28;20638;-74
2023/05/02 02:05:48;;;;;;;0.00;0.00;;;;;;;;;;1726813;28;20232;-75
2023/05/02 02:06:42;;;;;;;0.00;0.00;;;;;;;;;;1732607;28;20281;-74
2023/05/02 02:07:33;;;;;;;0.00;0.00;;;;;;;;;;1731872;28;20235;-75
2023/05/02 02:08:25;;;;;;;0.00;0.00;;;;;;;;;;1732743;28;20577;-74
2023/05/02 02:09:16;;;;;;;0.00;0.00;;;;;;;;;;1731951;28;20205;-74
2023/05/02 02:10:08;;;;;;;0.00;0.00;;;;;;;;;;1732794;28;20199;-74
2023/05/02 02:11:01;;;;;;;0.00;0.00;;;;;;;;;;1731595;28;20339;-75
2023/05/02 02:11:58;;;;;;;0.00;0.00;;;;;;;;;;1739324;28;20626;-75
2023/05/02 02:12:51;;;;;;;0.00;0.00;;;;;;;;;;1739013;28;20202;-75
2023/05/02 02:13:46;;;;;;;0.00;0.00;;;;;;;;;;1739084;28;20209;-74
2023/05/02 02:14:39;;;;;;;0.00;0.00;;;;;;;;;;1737248;28;20253;-75
2023/05/02 02:15:35;;;;;;;0.00;0.00;;;;;;;;;;1733882;28;20554;-74
2023/05/02 02:16:29;;;;;;;0.10;0.10;;;;;;;;;;1743534;28;20648;-74
2023/05/02 02:17:24;;;;;;;0.10;0.10;;;;;;;;;;1735498;28;20399;-74
2023/05/02 02:18:18;;;;;;;0.00;0.00;;;;;;;;;;1739152;28;20253;-74
2023/05/02 02:19:11;;;;;;;0.00;0.00;;;;;;;;;;1739079;28;20284;-75
2023/05/02 02:20:04;;;;;;;0.00;0.00;;;;;;;;;;1739527;28;20266;-75
2023/05/02 02:20:59;;;;;;;0.10;0.10;;;;;;;;;;1734161;28;20646;-74
2023/05/02 02:21:51;;;;;;;0.10;0.10;;;;;;;;;;1735325;28;20216;-74
2023/05/02 02:22:44;;;;;;;0.00;0.00;;;;;;;;;;1738829;28;20609;-75
2023/05/02 02:23:35;;;;;;;0.00;0.00;;;;;;;;;;1739089;28;20234;-75
2023/05/02 02:24:27;;;;;;;0.00;0.00;;;;;;;;;;1738920;28;20202;-74
2023/05/02 02:25:18;;;;;;;0.00;0.00;;;;;;;;;;1734863;28;20651;-75
2023/05/02 02:26:11;;;;;;;0.00;0.00;;;;;;;;;;1738560;28;20207;-75
2023/05/02 02:27:02;;;;;;;0.00;0.00;;;;;;;;;;1739182;28;20207;-75
2023/05/02 02:27:53;;;;;;;0.00;0.00;;;;;;;;;;1738909;28;20205;-76
2023/05/02 02:28:46;;;;;;;0.00;0.00;;;;;;;;;;1737540;28;20324;-75
2023/05/02 02:29:37;;;;;;;0.00;0.00;;;;;;;;;;1738829;28;20210;-75
2023/05/02 02:30:29;;;;;;;0.00;0.00;;;;;;;;;;1734611;28;20206;-75
2023/05/02 02:31:24;;;;;;;0.00;0.00;;;;;;;;;;1739442;28;20198;-75
2023/05/02 02:32:16;;;;;;;0.00;0.00;;;;;;;;;;1738676;28;20207;-75
2023/05/02 02:33:08;;;;;;;0.00;0.00;;;;;;;;;;1739105;28;20296;-74
2023/05/02 02:34:00;;;;;;;0.00;0.00;;;;;;;;;;1738768;28;20201;-74
2023/05/02 02:34:51;;;;;;;0.00;0.00;;;;;;;;;;1736730;28;20257;-74
2023/05/02 02:35:45;;;;;;;0.00;0.00;;;;;;;;;;1734672;28;20234;-74
2023/05/02 02:36:39;;;;;;;0.00;0.00;;;;;;;;;;1739211;28;20212;-74
2023/05/02 02:37:32;;;;;;;0.00;0.00;;;;;;;;;;1738776;28;20261;-74
2023/05/02 02:38:30;;;;;;;0.00;0.00;;;;;;;;;;1739250;28;20266;-74
2023/05/02 02:39:26;;;;;;;0.00;0.00;;;;;;;;;;1737969;28;20698;-75
2023/05/02 02:40:21;;;;;;;0.00;0.00;;;;;;;;;;1733364;28;20207;-75
2023/05/02 02:41:15;;;;;;;0.00;0.00;;;;;;;;;;1738570;28;20951;-75
2023/05/02 02:42:09;;;;;;;0.00;0.00;;;;;;;;;;1739030;28;20229;-75
2023/05/02 02:43:04;;;;;;;0.00;0.00;;;;;;;;;;1738587;28;20215;-75
2023/05/02 02:44:00;;;;;;;0.00;0.00;;;;;;;;;;1738671;28;20210;-75
2023/05/02 02:44:55;;;;;;;0.00;0.00;;;;;;;;;;1733694;28;20491;-75
2023/05/02 02:45:50;;;;;;;0.00;0.00;;;;;;;;;;1730676;28;20236;-75
2023/05/02 02:46:47;;;;;;;0.00;0.00;;;;;;;;;;1737603;28;20283;-75
2023/05/02 02:47:41;;;;;;;0.00;0.00;;;;;;;;;;1737353;28;20210;-75
2023/05/02 02:48:35;;;;;;;0.00;0.00;;;;;;;;;;1739454;28;20719;-75
2023/05/02 02:49:31;;;;;;;0.00;0.00;;;;;;;;;;1738750;28;20644;-74
2023/05/02 02:50:28;;;;;;;0.00;0.00;;;;;;;;;;1728668;28;20194;-75
2023/05/02 02:51:24;;;;;;;0.00;0.00;;;;;;;;;;1738635;28;20203;-75
2023/05/02 02:52:19;;;;;;;0.00;0.00;;;;;;;;;;1738773;28;20713;-75
2023/05/02 02:53:16;;;;;;;0.00;0.00;;;;;;;;;;1738871;28;20218;-75
2023/05/02 02:54:12;;;;;;;0.00;0.00;;;;;;;;;;1738630;28;20213;-75
2023/05/02 02:55:07;;;;;;;0.00;0.00;;;;;;;;;;1739345;28;20215;-75
2023/05/02 02:56:03;;;;;;;0.00;0.00;;;;;;;;;;1733630;28;20283;-74
2023/05/02 02:56:58;;;;;;;0.00;0.00;;;;;;;;;;1735824;28;20206;-74
2023/05/02 02:57:56;;;;;;;0.00;0.00;;;;;;;;;;1738475;28;20240;-74
2023/05/02 02:58:53;;;;;;;0.00;0.00;;;;;;;;;;1739091;28;20586;-74
2023/05/02 02:59:50;;;;;;;0.00;0.00;;;;;;;;;;1739775;28;20217;-74
2023/05/02 03:00:41;;;;;;;0.03;0.03;;;;;;;;;;1734341;28;20547;-75
2023/05/02 03:01:35;;;;;;;0.00;0.00;;;;;;;;;;1739020;28;20191;-75
2023/05/02 03:02:28;;;;;;;0.00;0.00;;;;;;;;;;1739341;28;20652;-75
2023/05/02 03:03:27;;;;;;;0.00;0.00;;;;;;;;;;1739497;28;20298;-75
2023/05/02 03:04:19;;;;;;;0.00;0.00;;;;;;;;;;1739056;28;20644;-75
2023/05/02 03:05:11;;;;;;;0.00;0.00;;;;;;;;;;1736293;28;20260;-75
2023/05/02 03:06:03;;;;;;;0.00;0.00;;;;;;;;;;1736218;28;20752;-75
2023/05/02 03:06:55;;;;;;;0.00;0.00;;;;;;;;;;1739796;28;20268;-75
2023/05/02 03:07:46;;;;;;;0.00;0.00;;;;;;;;;;1738616;28;20271;-75
2023/05/02 03:08:41;;;;;;;0.00;0.00;;;;;;;;;;1739307;28;20552;-75
2023/05/02 03:09:42;;;;;;;0.00;0.00;;;;;;;;;;1738975;28;20652;-75
2023/05/02 03:10:34;;;;;;;0.00;0.00;;;;;;;;;;1734243;28;20228;-75
2023/05/02 03:11:25;;;;;;;0.10;0.10;;;;;;;;;;1739570;28;20204;-75
2023/05/02 03:12:17;;;;;;;0.10;0.10;;;;;;;;;;1738635;28;20245;-76
2023/05/02 03:13:08;;;;;;;0.00;0.00;;;;;;;;;;1739149;28;20291;-77
2023/05/02 03:14:00;;;;;;;0.00;0.00;;;;;;;;;;1738502;28;20208;-77
2023/05/02 03:14:51;;;;;;;0.00;0.00;;;;;;;;;;1737452;28;20213;-77
2023/05/02 03:16:02;;;;;;;0.00;0.00;;;;;;;;;;1733926;28;20241;-77
2023/05/02 03:16:54;;;;;;;0.00;0.00;;;;;;;;;;1735304;28;20302;-77
2023/05/02 03:17:47;;;;;;;0.00;0.00;;;;;;;;;;1738578;28;20208;-77
2023/05/02 03:18:39;;;;;;;0.00;0.00;;;;;;;;;;1738828;28;20212;-75
2023/05/02 03:19:30;;;;;;;0.00;0.00;;;;;;;;;;1738605;28;20214;-75
2023/05/02 03:20:22;;;;;;;0.00;0.00;;;;;;;;;;1734380;28;20211;-76
2023/05/02 03:21:13;;;;;;;0.00;0.00;;;;;;;;;;1739464;28;20663;-76
2023/05/02 03:22:05;;;;;;;0.00;0.00;;;;;;;;;;1741255;28;20274;-76
2023/05/02 03:22:56;;;;;;;0.00;0.00;;;;;;;;;;1738607;28;20253;-76
2023/05/02 03:23:48;;;;;;;0.00;0.00;;;;;;;;;;1738781;28;20213;-76
2023/05/02 03:24:39;;;;;;;0.00;0.00;;;;;;;;;;1741780;28;20221;-76
2023/05/02 03:25:31;;;;;;;0.10;0.10;;;;;;;;;;1734255;28;20265;-76
2023/05/02 03:26:22;;;;;;;0.00;0.00;;;;;;;;;;1738120;28;20199;-76
2023/05/02 03:27:14;;;;;;;0.00;0.00;;;;;;;;;;1738626;28;20709;-76
2023/05/02 03:28:05;;;;;;;0.00;0.00;;;;;;;;;;1738924;28;20279;-76
2023/05/02 03:28:58;;;;;;;0.00;0.00;;;;;;;;;;1738293;28;20202;-76
2023/05/02 03:29:49;;;;;;;0.00;0.00;;;;;;;;;;1738966;28;20690;-76
2023/05/02 03:30:41;;;;;;;0.00;0.00;;;;;;;;;;1733423;28;20246;-76
2023/05/02 03:31:32;;;;;;;0.00;0.00;;;;;;;;;;1736736;28;20240;-76
2023/05/02 03:32:25;;;;;;;0.00;0.00;;;;;;;;;;1735054;28;20201;-76
2023/05/02 03:33:18;;;;;;;0.00;0.00;;;;;;;;;;1738369;28;20206;-76
2023/05/02 03:34:09;;;;;;;0.00;0.00;;;;;;;;;;1738306;28;20205;-76
2023/05/02 03:35:01;;;;;;;0.00;0.00;;;;;;;;;;1738726;28;20210;-76
2023/05/02 03:35:53;;;;;;;0.00;0.00;;;;;;;;;;1733141;28;20393;-76
2023/05/02 03:36:45;;;;;;;0.00;0.00;;;;;;;;;;1738660;28;20718;-76
2023/05/02 03:37:36;;;;;;;0.00;0.00;;;;;;;;;;1738189;28;20217;-76
2023/05/02 03:38:30;;;;;;;0.00;0.00;;;;;;;;;;1739040;28;20638;-75
2023/05/02 03:39:21;;;;;;;0.00;0.00;;;;;;;;;;1738152;28;20214;-75
2023/05/02 03:40:13;;;;;;;0.00;0.00;;;;;;;;;;1734554;28;20237;-75
2023/05/02 03:41:04;;;;;;;0.00;0.00;;;;;;;;;;1737991;28;20667;-75
2023/05/02 03:41:56;;;;;;;0.00;0.00;;;;;;;;;;1738716;28;20206;-75
2023/05/02 03:42:47;;;;;;;0.00;0.00;;;;;;;;;;1738254;28;20203;-75
2023/05/02 03:43:39;;;;;;;0.00;0.00;;;;;;;;;;1738469;28;20598;-75
2023/05/02 03:44:30;;;;;;;0.00;0.00;;;;;;;;;;1736905;28;20214;-75
2023/05/02 03:45:22;;;;;;;0.00;0.00;;;;;;;;;;1737159;28;20186;-75
2023/05/02 03:46:14;;;;;;;0.00;0.00;;;;;;;;;;1738396;28;20215;-75
2023/05/02 03:47:06;;;;;;;0.00;0.00;;;;;;;;;;1738754;28;20671;-75
2023/05/02 03:47:57;;;;;;;0.00;0.00;;;;;;;;;;1737388;28;20609;-75
2023/05/02 03:48:50;;;;;;;0.00;0.00;;;;;;;;;;1738572;28;20251;-75
2023/05/02 03:49:41;;;;;;;0.00;0.00;;;;;;;;;;1738528;28;20303;-75
2023/05/02 03:50:33;;;;;;;0.00;0.00;;;;;;;;;;1737404;28;20237;-75
2023/05/02 03:51:24;;;;;;;0.00;0.00;;;;;;;;;;1737762;28;20218;-75
2023/05/02 03:52:16;;;;;;;0.00;0.00;;;;;;;;;;1738276;28;20580;-75
2023/05/02 03:53:08;;;;;;;0.00;0.00;;;;;;;;;;1738860;28;20217;-75
2023/05/02 03:54:01;;;;;;;0.00;0.00;;;;;;;;;;1737956;28;21267;-75
2023/05/02 03:54:52;;;;;;;0.00;0.00;;;;;;;;;;1736253;28;20364;-75
2023/05/02 03:55:44;;;;;;;0.00;0.00;;;;;;;;;;1735457;28;20325;-75
2023/05/02 03:56:36;;;;;;;0.00;0.00;;;;;;;;;;1738679;28;20212;-76
2023/05/02 03:57:30;;;;;;;0.00;0.00;;;;;;;;;;1738665;28;20206;-76
2023/05/02 03:58:22;;;;;;;0.00;0.00;;;;;;;;;;1738533;28;20274;-75
2023/05/02 03:59:14;;;;;;;0.00;0.00;;;;;;;;;;1738311;28;20265;-75
2023/05/02 04:00:05;;;;;;;0.00;0.00;;;;;;;;;;1738870;28;20246;-76
2023/05/02 04:00:57;;;;;;;0.00;0.00;;;;;;;;;;1736347;28;20576;-75
2023/05/02 04:01:49;;;;;;;0.00;0.00;;;;;;;;;;1738345;28;20320;-75
2023/05/02 04:02:41;;;;;;;0.00;0.00;;;;;;;;;;1738131;28;20227;-75
2023/05/02 04:03:32;;;;;;;0.00;0.00;;;;;;;;;;1738945;28;20260;-75
2023/05/02 04:04:25;;;;;;;0.00;0.00;;;;;;;;;;1738048;28;20226;-75
2023/05/02 04:05:16;;;;;;;0.00;0.00;;;;;;;;;;1736459;28;20202;-75
2023/05/02 04:06:08;;;;;;;0.00;0.00;;;;;;;;;;1737779;28;20313;-75
2023/05/02 04:07:00;;;;;;;0.00;0.00;;;;;;;;;;1738672;28;20206;-75
2023/05/02 04:07:52;;;;;;;0.00;0.00;;;;;;;;;;1738257;28;20252;-75
2023/05/02 04:08:43;;;;;;;0.00;0.00;;;;;;;;;;1738279;28;20506;-75
2023/05/02 04:09:35;;;;;;;0.00;0.00;;;;;;;;;;1738354;28;20276;-75
2023/05/02 04:10:26;;;;;;;0.00;0.00;;;;;;;;;;1729316;28;20324;-75
2023/05/02 04:11:18;;;;;;;0.00;0.00;;;;;;;;;;1731661;28;20247;-75
2023/05/02 04:12:09;;;;;;;0.00;0.00;;;;;;;;;;1731429;28;20580;-75
2023/05/02 04:13:02;;;;;;;0.00;0.00;;;;;;;;;;1731480;28;20200;-75
2023/05/02 04:13:53;;;;;;;0.00;0.00;;;;;;;;;;1731144;28;20277;-75
2023/05/02 04:14:45;;;;;;;0.00;0.00;;;;;;;;;;1729932;28;20650;-75
2023/05/02 04:15:36;;;;;;;0.00;0.00;;;;;;;;;;1727967;28;20302;-76
2023/05/02 04:16:28;;;;;;;0.00;0.00;;;;;;;;;;1731789;28;20196;-76
2023/05/02 04:17:20;;;;;;;0.00;0.00;;;;;;;;;;1731368;28;20308;-76
2023/05/02 04:18:12;;;;;;;0.00;0.00;;;;;;;;;;1730270;28;20201;-75
2023/05/02 04:19:03;;;;;;;0.00;0.00;;;;;;;;;;1731072;28;20330;-75
2023/05/02 04:19:57;;;;;;;0.00;0.00;;;;;;;;;;1731729;28;20208;-75
2023/05/02 04:20:48;;;;;;;0.10;0.10;;;;;;;;;;1726400;28;20331;-75
2023/05/02 04:21:40;;;;;;;0.00;0.00;;;;;;;;;;1731670;28;20205;-75
2023/05/02 04:22:32;;;;;;;0.00;0.00;;;;;;;;;;1731377;28;20535;-75
2023/05/02 04:23:23;;;;;;;0.00;0.00;;;;;;;;;;1731436;28;20255;-75
2023/05/02 04:24:15;;;;;;;0.00;0.00;;;;;;;;;;1731165;28;20247;-75
2023/05/02 04:25:07;;;;;;;0.00;0.00;;;;;;;;;;1731779;28;20670;-75
2023/05/02 04:25:58;;;;;;;0.00;0.00;;;;;;;;;;1726282;28;20261;-75
2023/05/02 04:26:50;;;;;;;0.00;0.00;;;;;;;;;;1731487;28;20209;-75
2023/05/02 04:27:41;;;;;;;0.00;0.00;;;;;;;;;;1731303;28;20209;-75
2023/05/02 04:28:33;;;;;;;0.00;0.00;;;;;;;;;;1732111;28;20263;-75
2023/05/02 04:29:24;;;;;;;0.00;0.00;;;;;;;;;;1730996;28;20269;-75
2023/05/02 04:30:16;;;;;;;0.00;0.00;;;;;;;;;;1727372;28;20519;-75
2023/05/02 04:31:07;;;;;;;0.00;0.00;;;;;;;;;;1730786;28;20260;-75
2023/05/02 04:31:59;;;;;;;0.00;0.00;;;;;;;;;;1731801;28;20201;-75
2023/05/02 04:32:51;;;;;;;0.00;0.00;;;;;;;;;;1730964;28;20267;-74
2023/05/02 04:33:43;;;;;;;0.00;0.00;;;;;;;;;;1731219;28;20317;-74
2023/05/02 04:34:34;;;;;;;0.00;0.00;;;;;;;;;;1731359;28;20216;-74
2023/05/02 04:35:27;;;;;;;0.00;0.00;;;;;;;;;;1726518;28;20586;-74
2023/05/02 04:36:18;;;;;;;0.00;0.00;;;;;;;;;;1731306;28;20254;-74
2023/05/02 04:37:10;;;;;;;0.00;0.00;;;;;;;;;;1731024;28;20208;-74
2023/05/02 04:38:01;;;;;;;0.00;0.00;;;;;;;;;;1731022;28;20216;-74
2023/05/02 04:38:53;;;;;;;0.00;0.00;;;;;;;;;;1730949;28;20217;-74
2023/05/02 04:39:44;;;;;;;0.00;0.00;;;;;;;;;;1731290;28;20593;-74
2023/05/02 04:40:36;;;;;;;0.00;0.00;;;;;;;;;;1726783;28;20270;-75
2023/05/02 04:41:28;;;;;;;0.00;0.00;;;;;;;;;;1731390;28;20727;-75
2023/05/02 04:42:20;;;;;;;0.00;0.00;;;;;;;;;;1730992;28;20252;-75
2023/05/02 04:43:11;;;;;;;0.00;0.00;;;;;;;;;;1731605;28;20202;-75
2023/05/02 04:44:03;;;;;;;0.00;0.00;;;;;;;;;;1730833;28;20712;-75
2023/05/02 04:44:54;;;;;;;0.00;0.00;;;;;;;;;;1730237;28;20210;-75
2023/05/02 04:45:46;;;;;;;0.10;0.10;;;;;;;;;;1726097;28;20304;-75
2023/05/02 04:46:37;;;;;;;0.00;0.00;;;;;;;;;;1731667;28;20332;-76
2023/05/02 04:47:29;;;;;;;0.00;0.00;;;;;;;;;;1731553;28;20231;-75
2023/05/02 04:48:21;;;;;;;0.00;0.00;;;;;;;;;;1731334;28;20274;-76
2023/05/02 04:49:12;;;;;;;0.00;0.00;;;;;;;;;;1730989;28;20673;-75
2023/05/02 04:50:04;;;;;;;0.10;0.10;;;;;;;;;;1731837;28;20292;-75
2023/05/02 04:50:57;;;;;;;0.00;0.00;;;;;;;;;;1726738;28;20236;-75
2023/05/02 04:51:50;;;;;;;0.00;0.00;;;;;;;;;;1731588;28;20705;-75
2023/05/02 04:52:42;;;;;;;0.00;0.00;;;;;;;;;;1730915;28;20268;-75
2023/05/02 04:53:33;;;;;;;0.00;0.00;;;;;;;;;;1731660;28;20202;-75
2023/05/02 04:54:26;;;;;;;0.00;0.00;;;;;;;;;;1730730;28;20674;-75
2023/05/02 04:55:17;;;;;;;0.10;0.10;;;;;;;;;;1727794;28;20412;-75
2023/05/02 04:56:10;;;;;;;0.03;0.03;;;;;;;;;;1730557;28;20204;-76
2023/05/02 04:57:02;;;;;;;0.00;0.00;;;;;;;;;;1731436;28;20219;-75
2023/05/02 04:57:54;;;;;;;0.17;0.17;;;;;;;;;;1731310;28;20342;-75
2023/05/02 04:58:45;;;;;;;0.00;0.00;;;;;;;;;;1731230;28;20213;-74
2023/05/02 04:59:38;;;;;;;0.00;0.00;;;;;;;;;;1731214;28;20229;-75
2023/05/02 05:00:29;;;;;;;0.00;0.00;;;;;;;;;;1724284;28;20571;-74
2023/05/02 05:01:22;;;;;;;0.00;0.00;;;;;;;;;;1731264;28;20235;-74
2023/05/02 05:02:13;;;;;;;0.00;0.00;;;;;;;;;;1730830;28;20569;-74
2023/05/02 05:03:05;;;;;;;0.00;0.00;;;;;;;;;;1731452;28;20705;-74
2023/05/02 05:03:56;;;;;;;0.00;0.00;;;;;;;;;;1731571;28;20730;-75
2023/05/02 05:04:49;;;;;;;0.00;0.00;;;;;;;;;;1730045;28;20241;-75
2023/05/02 05:05:40;;;;;;;0.00;0.00;;;;;;;;;;1727553;28;20589;-75
2023/05/02 05:06:33;;;;;;;0.00;0.00;;;;;;;;;;1732943;28;20227;-75
2023/05/02 05:07:24;;;;;;;0.00;0.00;;;;;;;;;;1732353;28;20425;-75
2023/05/02 05:08:16;;;;;;;0.00;0.00;;;;;;;;;;1732894;28;20206;-75
2023/05/02 05:09:07;;;;;;;0.00;0.00;;;;;;;;;;1732232;28;20594;-75
2023/05/02 05:10:02;;;;;;;0.00;0.00;;;;;;;;;;1732923;28;20262;-75
2023/05/02 05:10:53;;;;;;;0.00;0.00;;;;;;;;;;1726819;28;20253;-74
2023/05/02 05:11:45;;;;;;;0.00;0.00;;;;;;;;;;1727943;28;20350;-75
2023/05/02 05:12:37;;;;;;;0.10;0.10;;;;;;;;;;1732609;28;20654;-75
2023/05/02 05:13:29;;;;;;;0.10;0.10;;;;;;;;;;1732267;28;20649;-75
2023/05/02 05:14:20;;;;;;;0.00;0.00;;;;;;;;;;1731784;28;20331;-75
2023/05/02 05:15:12;;;;;;;0.00;0.00;;;;;;;;;;1731204;28;20204;-75
2023/05/02 05:16:03;;;;;;;0.00;0.00;;;;;;;;;;1728899;28;20650;-75